sensor_id;sensor_type;location;lat;lon;timestamp;temperature;humidity
37378;DHT22;23248;48.120;14.854;2022-08-05T00:00:08;19.50;99.90
37378;DHT22;23248;48.120;14.854;2022-08-05T00:02:34;19.40;99.90
37378;DHT22;23248;48.120;14.854;2022-08-05T00:04:59;19.40;99.90
37378;DHT22;23248;48.120;14.854;2022-08-05T00:07:25;19.30;99.90
37378;DHT22;23248;48.120;14.854;2022-08-05T00:09:50;19.30;99.90
37378;DHT22;23248;48.120;14.854;2022-08-05T00:12:16;19.30;99.90
37378;DHT22;23248;48.120;14.854;2022-08-05T00:14:42;19.30;99.90
37378;DHT22;23248;48.120;14.854;2022-08-05T00:17:07;19.30;99.90
37378;DHT22;23248;48.120;14.854;2022-08-05T00:19:33;19.30;99.90
37378;DHT22;23248;48.120;14.854;2022-08-05T00:21:58;19.30;99.90
37378;DHT22;23248;48.120;14.854;2022-08-05T00:24:24;19.30;99.90
37378;DHT22;23248;48.120;14.854;2022-08-05T00:26:50;19.20;99.90
37378;DHT22;23248;48.120;14.854;2022-08-05T00:29:15;19.30;99.90
37378;DHT22;23248;48.120;14.854;2022-08-05T00:31:41;19.30;99.90
37378;DHT22;23248;48.120;14.854;2022-08-05T00:34:06;19.20;99.90
37378;DHT22;23248;48.120;14.854;2022-08-05T00:36:32;19.10;99.90
37378;DHT22;23248;48.120;14.854;2022-08-05T00:38:57;19.00;99.90
37378;DHT22;23248;48.120;14.854;2022-08-05T00:41:27;19.00;99.90
37378;DHT22;23248;48.120;14.854;2022-08-05T00:43:53;19.00;99.90
37378;DHT22;23248;48.120;14.854;2022-08-05T00:46:19;18.90;99.90
37378;DHT22;23248;48.120;14.854;2022-08-05T00:48:44;18.90;99.90
37378;DHT22;23248;48.120;14.854;2022-08-05T00:51:10;18.90;99.90
37378;DHT22;23248;48.120;14.854;2022-08-05T00:53:35;18.90;99.90
37378;DHT22;23248;48.120;14.854;2022-08-05T00:56:01;18.80;99.90
37378;DHT22;23248;48.120;14.854;2022-08-05T00:58:26;18.80;99.90
37378;DHT22;23248;48.120;14.854;2022-08-05T01:00:52;18.70;99.90
37378;DHT22;23248;48.120;14.854;2022-08-05T01:03:17;18.70;99.90
37378;DHT22;23248;48.120;14.854;2022-08-05T01:05:43;18.60;99.90
37378;DHT22;23248;48.120;14.854;2022-08-05T01:08:09;18.50;99.90
37378;DHT22;23248;48.120;14.854;2022-08-05T01:10:37;18.50;99.90
37378;DHT22;23248;48.120;14.854;2022-08-05T01:13:07;18.50;99.90
37378;DHT22;23248;48.120;14.854;2022-08-05T01:15:35;18.40;99.90
37378;DHT22;23248;48.120;14.854;2022-08-05T01:18:04;18.40;99.90
37378;DHT22;23248;48.120;14.854;2022-08-05T01:28:23;18.30;99.90
37378;DHT22;23248;48.120;14.854;2022-08-05T01:33:27;18.30;99.90
37378;DHT22;23248;48.120;14.854;2022-08-05T01:35:55;18.40;99.90
37378;DHT22;23248;48.120;14.854;2022-08-05T01:38:22;18.30;99.90
37378;DHT22;23248;48.120;14.854;2022-08-05T01:40:48;18.30;99.90
37378;DHT22;23248;48.120;14.854;2022-08-05T01:43:15;18.30;99.90
37378;DHT22;23248;48.120;14.854;2022-08-05T01:45:40;18.20;99.90
37378;DHT22;23248;48.120;14.854;2022-08-05T01:48:06;18.20;99.90
37378;DHT22;23248;48.120;14.854;2022-08-05T01:50:35;18.10;99.90
37378;DHT22;23248;48.120;14.854;2022-08-05T01:53:03;18.10;99.90
37378;DHT22;23248;48.120;14.854;2022-08-05T01:55:31;18.10;99.90
37378;DHT22;23248;48.120;14.854;2022-08-05T01:57:57;18.10;99.90
37378;DHT22;23248;48.120;14.854;2022-08-05T02:00:25;18.00;99.90
37378;DHT22;23248;48.120;14.854;2022-08-05T02:02:55;18.00;99.90
37378;DHT22;23248;48.120;14.854;2022-08-05T02:05:26;18.00;99.90
37378;DHT22;23248;48.120;14.854;2022-08-05T02:07:53;18.00;99.90
37378;DHT22;23248;48.120;14.854;2022-08-05T02:10:19;18.00;99.90
37378;DHT22;23248;48.120;14.854;2022-08-05T02:13:16;17.90;99.90
37378;DHT22;23248;48.120;14.854;2022-08-05T02:16:26;17.90;99.90
37378;DHT22;23248;48.120;14.854;2022-08-05T02:18:42;17.80;99.90
37378;DHT22;23248;48.120;14.854;2022-08-05T02:21:11;17.70;99.90
37378;DHT22;23248;48.120;14.854;2022-08-05T02:23:38;17.70;99.90
37378;DHT22;23248;48.120;14.854;2022-08-05T02:26:05;17.60;99.90
37378;DHT22;23248;48.120;14.854;2022-08-05T02:28:32;17.50;99.90
37378;DHT22;23248;48.120;14.854;2022-08-05T02:31:06;17.50;99.90
37378;DHT22;23248;48.120;14.854;2022-08-05T02:33:34;17.50;99.90
37378;DHT22;23248;48.120;14.854;2022-08-05T02:36:02;17.60;99.90
37378;DHT22;23248;48.120;14.854;2022-08-05T02:38:28;17.60;99.90
37378;DHT22;23248;48.120;14.854;2022-08-05T02:40:54;17.60;99.90
37378;DHT22;23248;48.120;14.854;2022-08-05T02:43:22;17.70;99.90
37378;DHT22;23248;48.120;14.854;2022-08-05T02:45:49;17.70;99.90
37378;DHT22;23248;48.120;14.854;2022-08-05T02:48:15;17.70;99.90
37378;DHT22;23248;48.120;14.854;2022-08-05T02:50:41;17.70;99.90
37378;DHT22;23248;48.120;14.854;2022-08-05T02:53:07;17.70;99.90
37378;DHT22;23248;48.120;14.854;2022-08-05T02:55:33;17.70;99.90
37378;DHT22;23248;48.120;14.854;2022-08-05T02:58:00;17.70;99.90
37378;DHT22;23248;48.120;14.854;2022-08-05T03:00:26;17.60;99.90
37378;DHT22;23248;48.120;14.854;2022-08-05T03:02:53;17.60;99.90
37378;DHT22;23248;48.120;14.854;2022-08-05T03:05:19;17.50;99.90
37378;DHT22;23248;48.120;14.854;2022-08-05T03:07:45;17.50;99.90
37378;DHT22;23248;48.120;14.854;2022-08-05T03:10:10;17.50;99.90
37378;DHT22;23248;48.120;14.854;2022-08-05T03:12:39;17.40;99.90
37378;DHT22;23248;48.120;14.854;2022-08-05T03:15:05;17.40;99.90
37378;DHT22;23248;48.120;14.854;2022-08-05T03:17:31;17.40;99.90
37378;DHT22;23248;48.120;14.854;2022-08-05T03:19:57;17.30;99.90
37378;DHT22;23248;48.120;14.854;2022-08-05T03:22:23;17.20;99.90
37378;DHT22;23248;48.120;14.854;2022-08-05T03:24:49;17.20;99.90
37378;DHT22;23248;48.120;14.854;2022-08-05T03:27:14;17.10;99.90
37378;DHT22;23248;48.120;14.854;2022-08-05T03:29:40;17.10;99.90
37378;DHT22;23248;48.120;14.854;2022-08-05T03:32:09;17.00;99.90
37378;DHT22;23248;48.120;14.854;2022-08-05T03:34:35;17.00;99.90
37378;DHT22;23248;48.120;14.854;2022-08-05T03:37:02;17.00;99.90
37378;DHT22;23248;48.120;14.854;2022-08-05T03:39:28;17.10;99.90
37378;DHT22;23248;48.120;14.854;2022-08-05T03:41:54;17.00;99.90
37378;DHT22;23248;48.120;14.854;2022-08-05T03:44:20;17.10;99.90
37378;DHT22;23248;48.120;14.854;2022-08-05T03:46:46;17.10;99.90
37378;DHT22;23248;48.120;14.854;2022-08-05T03:49:11;17.10;99.90
37378;DHT22;23248;48.120;14.854;2022-08-05T03:51:41;17.10;99.90
37378;DHT22;23248;48.120;14.854;2022-08-05T03:54:07;17.10;99.90
37378;DHT22;23248;48.120;14.854;2022-08-05T03:56:38;17.10;99.90
37378;DHT22;23248;48.120;14.854;2022-08-05T03:59:05;17.00;99.90
37378;DHT22;23248;48.120;14.854;2022-08-05T04:01:31;17.00;99.90
37378;DHT22;23248;48.120;14.854;2022-08-05T04:04:00;17.10;99.90
37378;DHT22;23248;48.120;14.854;2022-08-05T04:06:26;17.10;99.90
37378;DHT22;23248;48.120;14.854;2022-08-05T04:08:52;17.10;99.90
37378;DHT22;23248;48.120;14.854;2022-08-05T04:11:18;17.20;99.90
37378;DHT22;23248;48.120;14.854;2022-08-05T04:13:44;17.10;99.90
37378;DHT22;23248;48.120;14.854;2022-08-05T04:16:11;17.00;99.90
37378;DHT22;23248;48.120;14.854;2022-08-05T04:18:37;17.00;99.90
37378;DHT22;23248;48.120;14.854;2022-08-05T04:21:03;16.90;99.90
37378;DHT22;23248;48.120;14.854;2022-08-05T04:23:29;16.90;99.90
37378;DHT22;23248;48.120;14.854;2022-08-05T04:25:55;17.00;99.90
37378;DHT22;23248;48.120;14.854;2022-08-05T04:28:20;17.00;99.90
37378;DHT22;23248;48.120;14.854;2022-08-05T04:30:46;17.00;99.90
37378;DHT22;23248;48.120;14.854;2022-08-05T04:33:12;17.00;99.90
37378;DHT22;23248;48.120;14.854;2022-08-05T04:35:38;17.10;99.90
37378;DHT22;23248;48.120;14.854;2022-08-05T04:38:04;17.20;99.90
37378;DHT22;23248;48.120;14.854;2022-08-05T04:40:36;17.20;99.90
37378;DHT22;23248;48.120;14.854;2022-08-05T04:43:02;17.30;99.90
37378;DHT22;23248;48.120;14.854;2022-08-05T04:45:28;17.40;99.90
37378;DHT22;23248;48.120;14.854;2022-08-05T04:47:53;17.50;99.90
37378;DHT22;23248;48.120;14.854;2022-08-05T04:50:19;17.50;99.90
37378;DHT22;23248;48.120;14.854;2022-08-05T04:52:45;17.60;99.90
37378;DHT22;23248;48.120;14.854;2022-08-05T04:55:10;17.60;99.90
37378;DHT22;23248;48.120;14.854;2022-08-05T04:57:36;17.60;99.90
37378;DHT22;23248;48.120;14.854;2022-08-05T05:00:03;17.70;99.90
37378;DHT22;23248;48.120;14.854;2022-08-05T05:02:29;17.80;99.90
37378;DHT22;23248;48.120;14.854;2022-08-05T05:04:54;17.90;99.90
37378;DHT22;23248;48.120;14.854;2022-08-05T05:07:20;17.90;99.90
37378;DHT22;23248;48.120;14.854;2022-08-05T05:09:46;18.00;99.90
37378;DHT22;23248;48.120;14.854;2022-08-05T05:12:11;18.10;99.90
37378;DHT22;23248;48.120;14.854;2022-08-05T05:14:37;18.20;99.90
37378;DHT22;23248;48.120;14.854;2022-08-05T05:17:03;18.20;99.90
37378;DHT22;23248;48.120;14.854;2022-08-05T05:19:28;18.30;99.90
37378;DHT22;23248;48.120;14.854;2022-08-05T05:21:54;18.40;99.90
37378;DHT22;23248;48.120;14.854;2022-08-05T05:24:20;18.50;99.90
37378;DHT22;23248;48.120;14.854;2022-08-05T05:26:46;18.70;99.90
37378;DHT22;23248;48.120;14.854;2022-08-05T05:29:11;18.70;99.90
37378;DHT22;23248;48.120;14.854;2022-08-05T05:31:37;18.80;99.90
37378;DHT22;23248;48.120;14.854;2022-08-05T05:34:03;18.90;99.90
37378;DHT22;23248;48.120;14.854;2022-08-05T05:36:29;18.90;99.90
37378;DHT22;23248;48.120;14.854;2022-08-05T05:38:55;19.00;99.90
37378;DHT22;23248;48.120;14.854;2022-08-05T05:41:21;19.00;99.90
37378;DHT22;23248;48.120;14.854;2022-08-05T05:43:47;19.10;99.90
37378;DHT22;23248;48.120;14.854;2022-08-05T05:46:12;19.30;99.90
37378;DHT22;23248;48.120;14.854;2022-08-05T05:48:38;19.40;99.90
37378;DHT22;23248;48.120;14.854;2022-08-05T05:51:06;19.60;99.90
37378;DHT22;23248;48.120;14.854;2022-08-05T05:53:32;20.20;99.90
37378;DHT22;23248;48.120;14.854;2022-08-05T05:55:57;20.80;99.90
37378;DHT22;23248;48.120;14.854;2022-08-05T05:58:23;21.30;99.90
37378;DHT22;23248;48.120;14.854;2022-08-05T06:00:49;21.60;99.90
37378;DHT22;23248;48.120;14.854;2022-08-05T06:03:14;21.80;99.90
37378;DHT22;23248;48.120;14.854;2022-08-05T06:05:40;21.70;99.90
37378;DHT22;23248;48.120;14.854;2022-08-05T06:08:05;21.80;99.90
37378;DHT22;23248;48.120;14.854;2022-08-05T06:10:31;21.70;99.90
37378;DHT22;23248;48.120;14.854;2022-08-05T06:12:58;21.70;99.90
37378;DHT22;23248;48.120;14.854;2022-08-05T06:15:24;21.70;99.90
37378;DHT22;23248;48.120;14.854;2022-08-05T06:17:50;21.70;99.90
37378;DHT22;23248;48.120;14.854;2022-08-05T06:20:16;21.80;99.90
37378;DHT22;23248;48.120;14.854;2022-08-05T06:22:42;21.80;99.90
37378;DHT22;23248;48.120;14.854;2022-08-05T06:25:07;21.90;99.90
37378;DHT22;23248;48.120;14.854;2022-08-05T06:27:33;22.00;99.90
37378;DHT22;23248;48.120;14.854;2022-08-05T06:30:00;22.00;99.90
37378;DHT22;23248;48.120;14.854;2022-08-05T06:32:25;22.20;99.90
37378;DHT22;23248;48.120;14.854;2022-08-05T06:34:51;22.30;99.90
37378;DHT22;23248;48.120;14.854;2022-08-05T06:37:17;22.40;99.90
37378;DHT22;23248;48.120;14.854;2022-08-05T06:39:42;22.40;99.90
37378;DHT22;23248;48.120;14.854;2022-08-05T06:42:08;22.50;99.90
37378;DHT22;23248;48.120;14.854;2022-08-05T06:44:34;22.80;99.90
37378;DHT22;23248;48.120;14.854;2022-08-05T06:46:59;22.90;99.90
37378;DHT22;23248;48.120;14.854;2022-08-05T06:49:25;23.00;99.90
37378;DHT22;23248;48.120;14.854;2022-08-05T06:51:51;23.20;99.90
37378;DHT22;23248;48.120;14.854;2022-08-05T06:54:16;23.30;99.90
37378;DHT22;23248;48.120;14.854;2022-08-05T06:56:42;23.60;99.90
37378;DHT22;23248;48.120;14.854;2022-08-05T06:59:07;23.80;99.90
37378;DHT22;23248;48.120;14.854;2022-08-05T07:01:34;23.90;99.90
37378;DHT22;23248;48.120;14.854;2022-08-05T07:03:59;24.10;99.90
37378;DHT22;23248;48.120;14.854;2022-08-05T07:06:26;24.30;99.90
37378;DHT22;23248;48.120;14.854;2022-08-05T07:08:51;24.50;99.90
37378;DHT22;23248;48.120;14.854;2022-08-05T07:11:17;24.80;99.90
37378;DHT22;23248;48.120;14.854;2022-08-05T07:13:43;24.90;99.90
37378;DHT22;23248;48.120;14.854;2022-08-05T07:16:27;25.00;99.90
37378;DHT22;23248;48.120;14.854;2022-08-05T07:19:11;25.10;99.90
37378;DHT22;23248;48.120;14.854;2022-08-05T07:21:37;25.20;99.90
37378;DHT22;23248;48.120;14.854;2022-08-05T07:24:03;25.40;99.90
37378;DHT22;23248;48.120;14.854;2022-08-05T07:26:28;25.60;99.90
37378;DHT22;23248;48.120;14.854;2022-08-05T07:28:54;25.80;99.90
37378;DHT22;23248;48.120;14.854;2022-08-05T07:31:20;25.90;99.90
37378;DHT22;23248;48.120;14.854;2022-08-05T07:33:46;26.10;99.90
37378;DHT22;23248;48.120;14.854;2022-08-05T07:36:11;26.10;99.90
37378;DHT22;23248;48.120;14.854;2022-08-05T07:38:39;26.30;99.90
37378;DHT22;23248;48.120;14.854;2022-08-05T07:41:05;26.30;99.90
37378;DHT22;23248;48.120;14.854;2022-08-05T07:43:31;26.50;99.90
37378;DHT22;23248;48.120;14.854;2022-08-05T07:45:57;26.70;99.90
37378;DHT22;23248;48.120;14.854;2022-08-05T07:48:22;26.70;99.90
37378;DHT22;23248;48.120;14.854;2022-08-05T07:50:48;26.80;99.90
37378;DHT22;23248;48.120;14.854;2022-08-05T07:53:13;26.80;99.90
37378;DHT22;23248;48.120;14.854;2022-08-05T07:55:39;26.80;99.90
37378;DHT22;23248;48.120;14.854;2022-08-05T07:58:05;26.90;99.90
37378;DHT22;23248;48.120;14.854;2022-08-05T08:00:31;26.90;99.90
37378;DHT22;23248;48.120;14.854;2022-08-05T08:02:58;27.00;99.90
37378;DHT22;23248;48.120;14.854;2022-08-05T08:05:23;27.10;99.90
37378;DHT22;23248;48.120;14.854;2022-08-05T08:07:51;27.10;99.90
37378;DHT22;23248;48.120;14.854;2022-08-05T08:10:17;27.20;99.90
37378;DHT22;23248;48.120;14.854;2022-08-05T08:12:42;27.30;99.90
37378;DHT22;23248;48.120;14.854;2022-08-05T08:15:09;27.40;99.90
37378;DHT22;23248;48.120;14.854;2022-08-05T08:17:35;27.60;99.90
37378;DHT22;23248;48.120;14.854;2022-08-05T08:20:00;27.90;99.90
37378;DHT22;23248;48.120;14.854;2022-08-05T08:22:29;28.10;99.90
37378;DHT22;23248;48.120;14.854;2022-08-05T08:24:54;28.20;99.90
37378;DHT22;23248;48.120;14.854;2022-08-05T08:27:20;28.30;99.90
37378;DHT22;23248;48.120;14.854;2022-08-05T08:29:46;28.40;99.90
37378;DHT22;23248;48.120;14.854;2022-08-05T08:32:12;28.30;99.90
37378;DHT22;23248;48.120;14.854;2022-08-05T08:34:37;28.40;99.90
37378;DHT22;23248;48.120;14.854;2022-08-05T08:37:03;28.50;99.90
37378;DHT22;23248;48.120;14.854;2022-08-05T08:39:29;28.50;99.90
37378;DHT22;23248;48.120;14.854;2022-08-05T08:41:54;28.50;99.90
37378;DHT22;23248;48.120;14.854;2022-08-05T08:44:22;28.60;99.90
37378;DHT22;23248;48.120;14.854;2022-08-05T08:46:48;28.80;99.90
37378;DHT22;23248;48.120;14.854;2022-08-05T08:49:14;29.00;99.90
37378;DHT22;23248;48.120;14.854;2022-08-05T08:51:40;29.10;99.90
37378;DHT22;23248;48.120;14.854;2022-08-05T08:54:06;29.20;99.90
37378;DHT22;23248;48.120;14.854;2022-08-05T08:56:32;29.30;99.90
37378;DHT22;23248;48.120;14.854;2022-08-05T08:58:59;29.20;99.90
37378;DHT22;23248;48.120;14.854;2022-08-05T09:01:25;29.10;99.90
37378;DHT22;23248;48.120;14.854;2022-08-05T09:03:51;29.40;99.90
37378;DHT22;23248;48.120;14.854;2022-08-05T09:06:17;29.50;99.90
37378;DHT22;23248;48.120;14.854;2022-08-05T09:08:43;29.50;99.90
37378;DHT22;23248;48.120;14.854;2022-08-05T09:11:09;29.50;99.90
37378;DHT22;23248;48.120;14.854;2022-08-05T09:13:36;29.40;99.90
37378;DHT22;23248;48.120;14.854;2022-08-05T09:16:02;29.40;99.90
37378;DHT22;23248;48.120;14.854;2022-08-05T09:18:28;29.60;99.90
37378;DHT22;23248;48.120;14.854;2022-08-05T09:20:54;29.80;99.90
37378;DHT22;23248;48.120;14.854;2022-08-05T09:23:20;29.80;99.90
37378;DHT22;23248;48.120;14.854;2022-08-05T09:25:49;29.90;99.90
37378;DHT22;23248;48.120;14.854;2022-08-05T09:28:16;30.10;99.90
37378;DHT22;23248;48.120;14.854;2022-08-05T09:30:43;30.10;99.90
37378;DHT22;23248;48.120;14.854;2022-08-05T09:33:09;30.10;99.90
37378;DHT22;23248;48.120;14.854;2022-08-05T09:35:34;30.10;99.90
37378;DHT22;23248;48.120;14.854;2022-08-05T09:38:00;30.00;99.90
37378;DHT22;23248;48.120;14.854;2022-08-05T09:42:55;30.10;99.90
37378;DHT22;23248;48.120;14.854;2022-08-05T09:45:20;30.30;99.90
37378;DHT22;23248;48.120;14.854;2022-08-05T09:47:58;30.30;99.90
37378;DHT22;23248;48.120;14.854;2022-08-05T09:50:33;30.30;99.90
37378;DHT22;23248;48.120;14.854;2022-08-05T09:52:59;30.40;99.90
37378;DHT22;23248;48.120;14.854;2022-08-05T09:55:25;30.50;99.90
37378;DHT22;23248;48.120;14.854;2022-08-05T09:57:51;30.80;99.90
37378;DHT22;23248;48.120;14.854;2022-08-05T10:00:17;30.60;99.90
37378;DHT22;23248;48.120;14.854;2022-08-05T10:02:44;30.70;99.90
37378;DHT22;23248;48.120;14.854;2022-08-05T10:05:12;30.70;99.90
37378;DHT22;23248;48.120;14.854;2022-08-05T10:07:57;30.90;99.90
37378;DHT22;23248;48.120;14.854;2022-08-05T10:12:52;31.00;99.90
37378;DHT22;23248;48.120;14.854;2022-08-05T10:15:20;31.00;99.90
37378;DHT22;23248;48.120;14.854;2022-08-05T10:20:31;30.80;99.90
37378;DHT22;23248;48.120;14.854;2022-08-05T10:22:57;31.00;99.90
37378;DHT22;23248;48.120;14.854;2022-08-05T10:25:24;31.20;99.90
37378;DHT22;23248;48.120;14.854;2022-08-05T10:27:49;31.30;99.90
37378;DHT22;23248;48.120;14.854;2022-08-05T10:30:17;31.20;99.90
37378;DHT22;23248;48.120;14.854;2022-08-05T10:32:42;31.40;99.90
37378;DHT22;23248;48.120;14.854;2022-08-05T10:35:08;31.40;99.90
37378;DHT22;23248;48.120;14.854;2022-08-05T10:37:34;31.30;99.90
37378;DHT22;23248;48.120;14.854;2022-08-05T10:40:00;31.30;99.90
37378;DHT22;23248;48.120;14.854;2022-08-05T10:42:29;31.50;99.90
37378;DHT22;23248;48.120;14.854;2022-08-05T10:45:01;31.70;99.90
37378;DHT22;23248;48.120;14.854;2022-08-05T10:47:32;31.80;99.90
37378;DHT22;23248;48.120;14.854;2022-08-05T10:52:57;31.80;99.90
37378;DHT22;23248;48.120;14.854;2022-08-05T10:55:22;32.00;99.90
37378;DHT22;23248;48.120;14.854;2022-08-05T10:57:48;32.20;99.90
37378;DHT22;23248;48.120;14.854;2022-08-05T11:00:30;32.20;99.90
37378;DHT22;23248;48.120;14.854;2022-08-05T11:05:34;32.30;99.70
37378;DHT22;23248;48.120;14.854;2022-08-05T11:08:01;32.30;99.40
37378;DHT22;23248;48.120;14.854;2022-08-05T11:10:27;32.20;99.90
37378;DHT22;23248;48.120;14.854;2022-08-05T11:12:53;32.20;99.50
37378;DHT22;23248;48.120;14.854;2022-08-05T11:17:46;32.40;99.20
37378;DHT22;23248;48.120;14.854;2022-08-05T11:20:32;32.40;96.90
37378;DHT22;23248;48.120;14.854;2022-08-05T11:22:59;32.40;99.00
37378;DHT22;23248;48.120;14.854;2022-08-05T11:25:28;32.60;99.80
37378;DHT22;23248;48.120;14.854;2022-08-05T11:27:54;32.50;99.70
37378;DHT22;23248;48.120;14.854;2022-08-05T11:30:20;32.70;98.30
37378;DHT22;23248;48.120;14.854;2022-08-05T11:32:46;32.70;98.70
37378;DHT22;23248;48.120;14.854;2022-08-05T11:38:15;33.00;99.00
37378;DHT22;23248;48.120;14.854;2022-08-05T11:41:01;33.00;98.40
37378;DHT22;23248;48.120;14.854;2022-08-05T11:43:29;33.20;96.80
37378;DHT22;23248;48.120;14.854;2022-08-05T11:45:55;33.30;92.70
37378;DHT22;23248;48.120;14.854;2022-08-05T11:48:21;33.40;96.10
37378;DHT22;23248;48.120;14.854;2022-08-05T11:50:50;33.40;96.10
37378;DHT22;23248;48.120;14.854;2022-08-05T11:53:18;33.30;96.30
37378;DHT22;23248;48.120;14.854;2022-08-05T11:56:00;33.20;95.60
37378;DHT22;23248;48.120;14.854;2022-08-05T11:58:31;33.20;95.50
37378;DHT22;23248;48.120;14.854;2022-08-05T12:01:08;33.20;94.70
37378;DHT22;23248;48.120;14.854;2022-08-05T12:03:51;33.30;93.90
37378;DHT22;23248;48.120;14.854;2022-08-05T12:06:24;33.40;93.80
37378;DHT22;23248;48.120;14.854;2022-08-05T12:08:53;33.60;93.80
37378;DHT22;23248;48.120;14.854;2022-08-05T12:11:26;33.70;93.10
37378;DHT22;23248;48.120;14.854;2022-08-05T12:14:04;34.00;93.20
37378;DHT22;23248;48.120;14.854;2022-08-05T12:16:37;34.00;91.10
37378;DHT22;23248;48.120;14.854;2022-08-05T12:19:04;34.00;90.40
37378;DHT22;23248;48.120;14.854;2022-08-05T12:21:33;34.00;90.50
37378;DHT22;23248;48.120;14.854;2022-08-05T12:24:06;34.00;88.10
37378;DHT22;23248;48.120;14.854;2022-08-05T12:29:11;34.40;87.20
37378;DHT22;23248;48.120;14.854;2022-08-05T12:31:37;34.80;87.30
37378;DHT22;23248;48.120;14.854;2022-08-05T12:34:04;34.80;83.60
37378;DHT22;23248;48.120;14.854;2022-08-05T12:36:30;34.90;83.40
37378;DHT22;23248;48.120;14.854;2022-08-05T12:38:57;34.80;81.00
37378;DHT22;23248;48.120;14.854;2022-08-05T12:41:27;34.70;79.60
37378;DHT22;23248;48.120;14.854;2022-08-05T12:43:56;34.80;77.20
37378;DHT22;23248;48.120;14.854;2022-08-05T12:46:23;35.00;76.70
37378;DHT22;23248;48.120;14.854;2022-08-05T12:49:22;35.20;69.90
37378;DHT22;23248;48.120;14.854;2022-08-05T12:51:47;35.40;68.70
37378;DHT22;23248;48.120;14.854;2022-08-05T12:54:17;35.30;71.80
37378;DHT22;23248;48.120;14.854;2022-08-05T12:56:46;35.10;71.60
37378;DHT22;23248;48.120;14.854;2022-08-05T13:04:19;35.00;72.20
37378;DHT22;23248;48.120;14.854;2022-08-05T13:06:45;35.10;71.00
37378;DHT22;23248;48.120;14.854;2022-08-05T13:09:12;35.10;71.10
37378;DHT22;23248;48.120;14.854;2022-08-05T13:11:39;35.30;74.50
37378;DHT22;23248;48.120;14.854;2022-08-05T13:14:10;35.40;69.50
37378;DHT22;23248;48.120;14.854;2022-08-05T13:16:52;35.40;70.20
37378;DHT22;23248;48.120;14.854;2022-08-05T13:19:24;35.50;70.80
37378;DHT22;23248;48.120;14.854;2022-08-05T13:21:50;35.70;69.30
37378;DHT22;23248;48.120;14.854;2022-08-05T13:24:15;36.00;69.90
37378;DHT22;23248;48.120;14.854;2022-08-05T13:26:42;35.90;67.60
37378;DHT22;23248;48.120;14.854;2022-08-05T13:29:08;36.30;71.90
37378;DHT22;23248;48.120;14.854;2022-08-05T13:31:34;36.20;69.20
37378;DHT22;23248;48.120;14.854;2022-08-05T13:33:59;36.00;70.00
37378;DHT22;23248;48.120;14.854;2022-08-05T13:36:25;36.00;70.70
37378;DHT22;23248;48.120;14.854;2022-08-05T13:38:51;35.90;70.60
37378;DHT22;23248;48.120;14.854;2022-08-05T13:41:16;36.10;70.60
37378;DHT22;23248;48.120;14.854;2022-08-05T13:43:42;35.80;70.00
37378;DHT22;23248;48.120;14.854;2022-08-05T13:46:10;36.00;69.50
37378;DHT22;23248;48.120;14.854;2022-08-05T13:48:38;36.10;70.50
37378;DHT22;23248;48.120;14.854;2022-08-05T13:51:08;36.10;69.90
37378;DHT22;23248;48.120;14.854;2022-08-05T13:53:34;36.10;71.50
37378;DHT22;23248;48.120;14.854;2022-08-05T13:56:01;36.00;72.00
37378;DHT22;23248;48.120;14.854;2022-08-05T13:58:27;36.00;71.90
37378;DHT22;23248;48.120;14.854;2022-08-05T14:00:53;36.00;71.40
37378;DHT22;23248;48.120;14.854;2022-08-05T14:03:19;36.00;70.30
37378;DHT22;23248;48.120;14.854;2022-08-05T14:05:45;36.10;69.30
37378;DHT22;23248;48.120;14.854;2022-08-05T14:08:11;36.50;67.00
37378;DHT22;23248;48.120;14.854;2022-08-05T14:10:37;36.60;69.80
37378;DHT22;23248;48.120;14.854;2022-08-05T14:13:04;36.60;67.20
37378;DHT22;23248;48.120;14.854;2022-08-05T14:15:33;36.70;67.20
37378;DHT22;23248;48.120;14.854;2022-08-05T14:17:59;36.60;67.70
37378;DHT22;23248;48.120;14.854;2022-08-05T14:20:25;36.80;68.30
37378;DHT22;23248;48.120;14.854;2022-08-05T14:22:51;36.90;67.50
37378;DHT22;23248;48.120;14.854;2022-08-05T14:25:17;36.90;65.00
37378;DHT22;23248;48.120;14.854;2022-08-05T14:27:45;36.90;68.00
37378;DHT22;23248;48.120;14.854;2022-08-05T14:30:12;37.00;67.80
37378;DHT22;23248;48.120;14.854;2022-08-05T14:32:38;37.00;67.60
37378;DHT22;23248;48.120;14.854;2022-08-05T14:35:03;36.70;66.80
37378;DHT22;23248;48.120;14.854;2022-08-05T14:37:29;36.60;68.30
37378;DHT22;23248;48.120;14.854;2022-08-05T14:39:55;36.60;68.20
37378;DHT22;23248;48.120;14.854;2022-08-05T14:42:20;36.70;68.80
37378;DHT22;23248;48.120;14.854;2022-08-05T14:44:46;36.90;69.90
37378;DHT22;23248;48.120;14.854;2022-08-05T14:47:12;36.80;67.90
37378;DHT22;23248;48.120;14.854;2022-08-05T14:49:38;36.70;68.10
37378;DHT22;23248;48.120;14.854;2022-08-05T14:52:03;36.60;66.60
37378;DHT22;23248;48.120;14.854;2022-08-05T14:54:29;36.50;67.00
37378;DHT22;23248;48.120;14.854;2022-08-05T14:56:55;36.10;69.00
37378;DHT22;23248;48.120;14.854;2022-08-05T14:59:21;35.90;70.10
37378;DHT22;23248;48.120;14.854;2022-08-05T15:01:47;36.00;71.30
37378;DHT22;23248;48.120;14.854;2022-08-05T15:04:13;36.10;68.00
37378;DHT22;23248;48.120;14.854;2022-08-05T15:06:39;36.10;71.30
37378;DHT22;23248;48.120;14.854;2022-08-05T15:09:05;36.10;70.40
37378;DHT22;23248;48.120;14.854;2022-08-05T15:11:34;35.80;72.70
37378;DHT22;23248;48.120;14.854;2022-08-05T15:14:00;35.60;73.60
37378;DHT22;23248;48.120;14.854;2022-08-05T15:16:25;35.30;73.80
37378;DHT22;23248;48.120;14.854;2022-08-05T15:18:51;35.00;75.70
37378;DHT22;23248;48.120;14.854;2022-08-05T15:21:16;34.80;77.20
37378;DHT22;23248;48.120;14.854;2022-08-05T15:23:42;34.50;75.80
37378;DHT22;23248;48.120;14.854;2022-08-05T15:26:08;34.40;76.90
37378;DHT22;23248;48.120;14.854;2022-08-05T15:28:33;34.10;74.90
37378;DHT22;23248;48.120;14.854;2022-08-05T15:30:59;34.00;76.60
37378;DHT22;23248;48.120;14.854;2022-08-05T15:33:24;33.90;76.60
37378;DHT22;23248;48.120;14.854;2022-08-05T15:35:50;33.90;78.90
37378;DHT22;23248;48.120;14.854;2022-08-05T15:38:16;33.90;80.10
37378;DHT22;23248;48.120;14.854;2022-08-05T15:40:41;33.90;85.80
37378;DHT22;23248;48.120;14.854;2022-08-05T15:43:08;34.00;85.80
37378;DHT22;23248;48.120;14.854;2022-08-05T15:45:34;34.10;83.80
37378;DHT22;23248;48.120;14.854;2022-08-05T15:48:00;34.10;87.80
37378;DHT22;23248;48.120;14.854;2022-08-05T15:50:26;34.10;86.40